createdAt,value
2023-04-16T00:00:57.699Z,8.70
2023-04-16T00:03:29.752Z,9.53
2023-04-16T00:06:01.954Z,6.93
2023-04-16T00:08:35.664Z,9.40
2023-04-16T00:11:07.593Z,10.13
2023-04-16T00:13:39.371Z,11.67
2023-04-16T00:16:11.360Z,11.53
2023-04-16T00:18:43.222Z,6.87
2023-04-16T00:21:15.649Z,8.30
2023-04-16T00:23:47.386Z,12.23
2023-04-16T00:26:18.995Z,9.93
2023-04-16T00:28:51.460Z,10.23
2023-04-16T00:31:33.896Z,10.87
2023-04-16T00:34:08.315Z,7.35
2023-04-16T00:36:40.006Z,9.23
2023-04-16T00:39:11.743Z,8.87
2023-04-16T00:41:44.254Z,9.40
2023-04-16T00:44:15.990Z,10.70
2023-04-16T00:46:47.897Z,10.13
2023-04-16T00:49:20.032Z,12.53
2023-04-16T00:51:51.850Z,10.80
2023-04-16T00:54:26.252Z,11.63
2023-04-16T00:56:59.776Z,8.50
2023-04-16T00:59:32.501Z,8.40
2023-04-16T01:02:04.266Z,7.90
2023-04-16T01:04:36.647Z,10.40
2023-04-16T01:07:08.447Z,10.30
2023-04-16T01:09:40.148Z,11.80
2023-04-16T01:12:11.861Z,11.00
2023-04-16T01:14:44.048Z,10.30
2023-04-16T01:17:15.849Z,10.80
2023-04-16T01:19:47.543Z,11.63
2023-04-16T01:22:19.347Z,10.03
2023-04-16T01:24:51.027Z,12.47
2023-04-16T01:27:22.652Z,10.60
2023-04-16T01:29:56.327Z,9.53
2023-04-16T01:32:40.993Z,22.23
2023-04-16T01:35:13.603Z,8.37
2023-04-16T01:37:45.309Z,9.00
2023-04-16T01:40:18.780Z,12.13
2023-04-16T01:42:51.600Z,11.77
2023-04-16T01:45:25.872Z,11.55
2023-04-16T01:47:57.599Z,11.73
2023-04-16T01:50:30.242Z,14.10
2023-04-16T01:53:04.919Z,13.07
2023-04-16T01:55:36.910Z,13.68
2023-04-16T01:58:10.968Z,13.67
2023-04-16T02:00:43.207Z,15.50
2023-04-16T02:03:17.635Z,13.37
2023-04-16T02:05:49.647Z,15.90
2023-04-16T02:08:21.291Z,16.13
2023-04-16T02:10:53.490Z,12.97
2023-04-16T02:13:26.172Z,14.57
2023-04-16T02:15:58.304Z,17.37
2023-04-16T02:18:47.919Z,17.87
2023-04-16T02:21:20.957Z,17.23
2023-04-16T02:23:53.037Z,18.50
2023-04-16T02:26:31.321Z,19.10
2023-04-16T02:29:09.530Z,23.47
2023-04-16T02:31:47.089Z,21.07
2023-04-16T02:34:19.169Z,23.67
2023-04-16T02:36:50.865Z,22.27
2023-04-16T02:39:22.612Z,23.77
2023-04-16T02:41:54.369Z,27.20
2023-04-16T02:44:26.203Z,26.70
2023-04-16T02:46:57.968Z,24.70
2023-04-16T02:49:29.711Z,23.70
2023-04-16T02:52:01.439Z,28.23
2023-04-16T02:54:33.928Z,25.80
2023-04-16T02:57:06.130Z,23.63
2023-04-16T02:59:38.623Z,23.07
2023-04-16T03:02:10.341Z,23.60
2023-04-16T03:04:42.599Z,27.53
2023-04-16T03:07:14.515Z,26.10
2023-04-16T03:09:46.245Z,28.50
2023-04-16T03:12:18.049Z,26.27
2023-04-16T03:14:52.524Z,28.63
2023-04-16T03:17:24.271Z,25.52
2023-04-16T03:19:55.967Z,25.40
2023-04-16T03:22:27.701Z,22.20
2023-04-16T03:24:59.334Z,23.50
2023-04-16T03:27:31.156Z,26.53
2023-04-16T03:30:04.734Z,27.97
2023-04-16T03:32:40.717Z,29.20
2023-04-16T03:35:12.824Z,29.30
2023-04-16T03:37:44.593Z,31.20
2023-04-16T03:40:16.302Z,26.60
2023-04-16T03:42:48.190Z,32.13
2023-04-16T03:45:19.841Z,24.27
2023-04-16T03:47:54.171Z,34.70
2023-04-16T03:50:28.718Z,31.17
2023-04-16T03:53:00.476Z,35.70
2023-04-16T03:55:32.222Z,35.73
2023-04-16T03:58:04.948Z,31.87
2023-04-16T04:00:37.679Z,32.63
2023-04-16T04:03:18.708Z,37.87
2023-04-16T04:05:52.774Z,33.50
2023-04-16T04:08:34.695Z,27.30
2023-04-16T04:11:08.265Z,33.33
2023-04-16T04:13:40.814Z,33.13
2023-04-16T04:16:12.957Z,38.43
2023-04-16T04:18:44.782Z,35.30
2023-04-16T04:21:16.820Z,34.20
2023-04-16T04:23:48.518Z,38.53
2023-04-16T04:26:20.159Z,30.00
2023-04-16T04:28:51.955Z,33.50
2023-04-16T04:31:24.000Z,36.07
2023-04-16T04:33:55.738Z,35.17
2023-04-16T04:36:27.514Z,34.50
2023-04-16T04:38:59.892Z,34.67
2023-04-16T04:41:33.187Z,30.83
2023-04-16T04:44:06.554Z,34.23
2023-04-16T04:46:39.977Z,32.17
2023-04-16T04:49:11.969Z,34.33
2023-04-16T04:51:43.837Z,32.20
2023-04-16T04:54:15.721Z,32.33
2023-04-16T04:56:48.306Z,35.47
2023-04-16T04:59:21.689Z,36.30
2023-04-16T05:01:53.972Z,34.10
2023-04-16T05:04:25.946Z,34.63
2023-04-16T05:06:57.631Z,32.03
2023-04-16T05:09:29.325Z,35.47
2023-04-16T05:12:01.235Z,37.27
2023-04-16T05:14:34.193Z,38.87
2023-04-16T05:17:08.076Z,35.57
2023-04-16T05:19:39.953Z,33.63
2023-04-16T05:22:12.694Z,36.97
2023-04-16T05:24:45.372Z,38.40
2023-04-16T05:27:17.019Z,40.10
2023-04-16T05:29:48.713Z,40.67
2023-04-16T05:32:20.475Z,39.40
2023-04-16T05:34:52.205Z,43.23
2023-04-16T05:37:23.951Z,41.47
2023-04-16T05:39:55.735Z,43.13
2023-04-16T05:42:27.389Z,41.47
2023-04-16T05:44:59.178Z,36.03
2023-04-16T05:47:30.982Z,39.47
2023-04-16T05:50:03.592Z,38.37
2023-04-16T05:52:36.123Z,39.57
2023-04-16T05:55:08.238Z,35.40
2023-04-16T05:57:39.923Z,37.57
2023-04-16T06:00:12.040Z,45.47
2023-04-16T06:02:44.056Z,42.63
2023-04-16T06:05:15.879Z,40.83
2023-04-16T06:07:47.694Z,39.00
2023-04-16T06:10:19.362Z,32.37
2023-04-16T06:12:51.231Z,32.63
2023-04-16T06:15:22.959Z,36.17
2023-04-16T06:17:56.070Z,31.90
2023-04-16T06:20:28.159Z,32.93
2023-04-16T06:22:59.860Z,34.37
2023-04-16T06:25:32.325Z,30.73
2023-04-16T06:28:05.038Z,26.33
2023-04-16T06:30:36.813Z,28.87
2023-04-16T06:33:08.796Z,31.83
2023-04-16T06:35:40.919Z,26.30
2023-04-16T06:38:12.664Z,28.87
2023-04-16T06:40:44.618Z,30.20
2023-04-16T06:43:17.851Z,29.50
2023-04-16T06:45:50.283Z,23.57
2023-04-16T06:48:21.921Z,26.00
2023-04-16T06:50:54.960Z,28.03
2023-04-16T06:53:26.627Z,31.27
2023-04-16T06:55:58.399Z,26.50
2023-04-16T06:58:30.273Z,31.03
2023-04-16T07:01:02.724Z,28.70
2023-04-16T07:03:35.481Z,29.87
2023-04-16T07:06:07.614Z,27.27
2023-04-16T07:08:39.239Z,31.00
2023-04-16T07:11:11.001Z,29.70
2023-04-16T07:13:42.674Z,31.33
2023-04-16T07:16:14.501Z,28.93
2023-04-16T07:18:46.238Z,30.60
2023-04-16T07:21:18.134Z,32.37
2023-04-16T07:23:49.817Z,29.87
2023-04-16T07:26:21.578Z,30.13
2023-04-16T07:28:53.247Z,35.17
2023-04-16T07:31:24.955Z,26.40
2023-04-16T07:33:56.625Z,26.73
2023-04-16T07:36:29.725Z,31.80
2023-04-16T07:39:02.399Z,32.57
2023-04-16T07:41:34.375Z,32.10
2023-04-16T07:44:06.153Z,24.30
2023-04-16T07:46:46.295Z,29.23
2023-04-16T07:49:18.886Z,30.20
2023-04-16T07:51:50.730Z,29.57
2023-04-16T07:54:22.386Z,28.50
2023-04-16T07:56:54.026Z,25.27
2023-04-16T07:59:26.213Z,28.73
2023-04-16T08:01:58.394Z,30.83
2023-04-16T08:04:30.574Z,25.03
2023-04-16T08:07:02.499Z,25.73
2023-04-16T08:09:35.862Z,28.37
2023-04-16T08:12:07.594Z,26.97
2023-04-16T08:14:41.250Z,24.83
2023-04-16T08:17:14.420Z,26.47
2023-04-16T08:19:46.261Z,26.77
2023-04-16T08:22:19.172Z,26.63
2023-04-16T08:24:50.870Z,26.10
2023-04-16T08:27:22.593Z,26.50
2023-04-16T08:29:54.260Z,24.90
2023-04-16T08:32:27.235Z,24.77
2023-04-16T08:34:59.623Z,23.80
2023-04-16T08:37:31.326Z,28.23
2023-04-16T08:40:03.970Z,25.03
2023-04-16T08:42:56.214Z,26.47
2023-04-16T08:45:28.173Z,25.40
2023-04-16T08:48:01.964Z,27.80
2023-04-16T08:50:35.018Z,26.37
2023-04-16T08:53:14.046Z,22.37
2023-04-16T08:55:51.381Z,30.30
2023-04-16T08:58:29.656Z,25.03
2023-04-16T09:01:05.415Z,24.67
2023-04-16T09:03:37.821Z,24.77
2023-04-16T09:06:09.976Z,24.90
2023-04-16T09:08:44.714Z,27.93
2023-04-16T09:13:52.370Z,25.17
2023-04-16T09:16:25.215Z,27.90
2023-04-16T09:18:57.013Z,26.27
2023-04-16T09:21:29.034Z,26.57
2023-04-16T09:24:02.263Z,23.20
2023-04-16T09:26:34.517Z,32.27
2023-04-16T09:29:06.691Z,25.97
2023-04-16T09:31:38.425Z,27.67
2023-04-16T09:34:10.314Z,25.67
2023-04-16T09:36:42.069Z,29.37
2023-04-16T09:39:22.535Z,23.37
2023-04-16T09:41:55.120Z,26.70
2023-04-16T09:44:41.097Z,21.50
2023-04-16T09:47:12.885Z,28.27
2023-04-16T09:49:45.621Z,26.30
2023-04-16T09:52:21.103Z,29.17
2023-04-16T09:54:54.018Z,29.60
2023-04-16T09:57:26.176Z,28.10
2023-04-16T10:00:07.822Z,26.00
2023-04-16T10:02:42.905Z,26.33
2023-04-16T10:05:18.606Z,27.67
2023-04-16T10:07:51.045Z,27.63
2023-04-16T10:10:23.614Z,26.53
2023-04-16T10:12:55.798Z,26.57
2023-04-16T10:15:28.083Z,25.23
2023-04-16T10:18:00.408Z,25.63
2023-04-16T10:20:32.353Z,25.47
2023-04-16T10:23:04.354Z,27.67
2023-04-16T10:25:37.970Z,32.17
2023-04-16T10:28:10.365Z,28.40
2023-04-16T10:30:52.694Z,25.10
2023-04-16T10:33:30.202Z,25.00
2023-04-16T10:36:12.374Z,30.40
2023-04-16T10:38:50.973Z,27.77
2023-04-16T10:41:22.820Z,27.10
2023-04-16T10:44:06.611Z,26.90
2023-04-16T10:46:40.597Z,27.23
2023-04-16T10:49:24.520Z,31.23
2023-04-16T10:52:02.238Z,26.27
2023-04-16T10:54:36.723Z,26.10
2023-04-16T10:57:15.005Z,28.00
2023-04-16T10:59:49.205Z,29.97
2023-04-16T11:02:21.211Z,30.13
2023-04-16T11:04:57.685Z,29.77
2023-04-16T11:07:35.113Z,27.30
2023-04-16T11:10:12.744Z,29.13
2023-04-16T11:12:48.550Z,28.10
2023-04-16T11:15:20.287Z,28.93
2023-04-16T11:17:52.711Z,24.47
2023-04-16T11:20:27.080Z,25.40
2023-04-16T11:22:58.994Z,26.98
2023-04-16T11:25:31.857Z,28.33
2023-04-16T11:28:03.688Z,29.27
2023-04-16T11:30:38.380Z,28.17
2023-04-16T11:33:12.377Z,28.45
2023-04-16T11:35:45.856Z,24.37
2023-04-16T11:38:18.787Z,28.10
2023-04-16T11:40:51.537Z,30.60
2023-04-16T11:43:23.277Z,27.90
2023-04-16T11:46:01.628Z,32.43
2023-04-16T11:48:52.505Z,30.93
2023-04-16T11:51:24.292Z,28.50
2023-04-16T11:53:56.254Z,29.53
2023-04-16T11:56:30.986Z,28.37
2023-04-16T11:59:17.980Z,26.30
2023-04-16T12:01:57.610Z,28.17
2023-04-16T12:04:29.901Z,29.30
2023-04-16T12:07:09.781Z,28.00
2023-04-16T12:09:44.776Z,30.53
2023-04-16T12:12:32.129Z,28.50
2023-04-16T12:15:05.240Z,30.80
2023-04-16T12:17:38.609Z,29.70
2023-04-16T12:20:15.779Z,27.23
2023-04-16T12:22:49.637Z,29.47
2023-04-16T12:25:24.822Z,29.52
2023-04-16T12:27:58.087Z,30.47
2023-04-16T12:30:31.036Z,30.97
2023-04-16T12:33:19.528Z,26.13
2023-04-16T12:35:51.764Z,24.77
2023-04-16T12:38:24.626Z,28.07
2023-04-16T12:40:57.785Z,26.60
2023-04-16T12:43:29.699Z,26.67
2023-04-16T12:46:04.136Z,25.37
2023-04-16T12:48:36.281Z,26.15
2023-04-16T12:51:08.181Z,24.03
2023-04-16T12:53:40.137Z,21.00
2023-04-16T12:56:11.994Z,22.47
2023-04-16T12:58:43.784Z,24.20
2023-04-16T13:01:15.537Z,23.70
2023-04-16T13:03:48.796Z,20.13
2023-04-16T13:06:21.224Z,18.47
2023-04-16T13:08:57.048Z,21.60
2023-04-16T13:11:29.143Z,19.67
2023-04-16T13:14:00.980Z,20.47
2023-04-16T13:16:33.033Z,17.87
2023-04-16T13:19:05.435Z,21.70
2023-04-16T13:21:37.342Z,22.93
2023-04-16T13:24:09.069Z,18.90
2023-04-16T13:26:43.355Z,19.03
2023-04-16T13:29:15.455Z,20.15
2023-04-16T13:31:47.893Z,20.00
2023-04-16T13:34:20.230Z,23.23
2023-04-16T13:36:52.948Z,21.23
2023-04-16T13:39:25.393Z,21.50
2023-04-16T13:41:57.489Z,22.17
2023-04-16T13:44:29.619Z,19.87
2023-04-16T13:47:01.554Z,19.67
2023-04-16T13:49:35.936Z,20.90
2023-04-16T13:52:08.047Z,23.73
2023-04-16T13:54:40.565Z,24.20
2023-04-16T13:57:24.372Z,23.47
2023-04-16T13:59:56.406Z,24.90
2023-04-16T14:02:28.315Z,23.67
2023-04-16T14:05:00.295Z,20.60
2023-04-16T14:07:32.616Z,20.90
2023-04-16T14:10:04.762Z,26.10
2023-04-16T14:12:37.622Z,20.47
2023-04-16T14:15:10.336Z,20.67
2023-04-16T14:17:44.116Z,20.60
2023-04-16T14:20:15.935Z,16.80
2023-04-16T14:22:47.856Z,21.30
2023-04-16T14:25:19.580Z,18.50
2023-04-16T14:27:51.499Z,19.13
2023-04-16T14:30:23.302Z,20.20
2023-04-16T14:32:55.101Z,17.93
2023-04-16T14:35:27.251Z,19.00
2023-04-16T14:37:59.186Z,22.33
2023-04-16T14:40:31.350Z,20.80
2023-04-16T14:43:03.233Z,21.70
2023-04-16T14:45:35.363Z,17.60
2023-04-16T14:48:07.749Z,18.53
2023-04-16T14:50:43.578Z,20.20
2023-04-16T14:53:16.079Z,23.13
2023-04-16T14:55:48.252Z,21.13
2023-04-16T14:58:20.514Z,21.13
2023-04-16T15:00:52.598Z,18.53
2023-04-16T15:03:25.630Z,20.73
2023-04-16T15:05:58.442Z,20.60
2023-04-16T15:08:30.265Z,19.97
2023-04-16T15:11:02.268Z,21.17
2023-04-16T15:13:34.431Z,20.73
2023-04-16T15:16:06.421Z,24.53
2023-04-16T15:18:38.351Z,23.73
2023-04-16T15:21:12.407Z,33.03
2023-04-16T15:23:44.558Z,24.50
2023-04-16T15:26:16.351Z,22.73
2023-04-16T15:28:48.090Z,25.93
2023-04-16T15:31:21.029Z,23.77
2023-04-16T15:33:54.443Z,24.63
2023-04-16T15:36:26.797Z,25.43
2023-04-16T15:38:58.974Z,28.87
2023-04-16T15:41:31.885Z,24.97
2023-04-16T15:44:03.646Z,26.60
2023-04-16T15:46:35.514Z,25.40
2023-04-16T15:49:07.293Z,26.30
2023-04-16T15:51:39.752Z,23.50
2023-04-16T15:54:11.439Z,25.23
2023-04-16T15:56:43.448Z,26.20
2023-04-16T15:59:15.369Z,24.10
2023-04-16T16:01:47.519Z,21.90
2023-04-16T16:04:21.803Z,23.60
2023-04-16T16:06:54.561Z,24.48
2023-04-16T16:09:26.773Z,23.40
2023-04-16T16:12:02.094Z,23.80
2023-04-16T16:14:34.174Z,23.40
2023-04-16T16:17:06.091Z,21.73
2023-04-16T16:19:38.024Z,22.10
2023-04-16T16:22:10.374Z,25.73
2023-04-16T16:24:42.416Z,21.70
2023-04-16T16:27:14.423Z,25.67
2023-04-16T16:29:46.808Z,26.33
2023-04-16T16:32:19.009Z,22.23
2023-04-16T16:34:51.157Z,23.00
2023-04-16T16:37:22.943Z,21.77
2023-04-16T16:39:54.820Z,21.37
2023-04-16T16:42:27.310Z,20.77
2023-04-16T16:44:59.259Z,23.80
2023-04-16T16:47:32.827Z,25.73
2023-04-16T16:50:05.981Z,23.37
2023-04-16T16:52:38.676Z,20.77
2023-04-16T16:55:11.211Z,21.97
2023-04-16T16:57:43.386Z,21.80
2023-04-16T17:00:20.306Z,22.07
2023-04-16T17:02:52.864Z,20.30
2023-04-16T17:05:25.429Z,20.60
2023-04-16T17:07:57.275Z,20.07
2023-04-16T17:10:29.197Z,23.87
2023-04-16T17:13:01.542Z,18.93
2023-04-16T17:15:33.520Z,22.70
2023-04-16T17:18:05.449Z,20.97
2023-04-16T17:20:38.732Z,21.53
2023-04-16T17:23:11.063Z,18.63
2023-04-16T17:25:43.366Z,22.03
2023-04-16T17:28:15.427Z,22.00
2023-04-16T17:30:51.993Z,21.97
2023-04-16T17:33:23.882Z,22.90
2023-04-16T17:35:56.040Z,21.37
2023-04-16T17:38:28.113Z,20.00
2023-04-16T17:41:00.312Z,20.17
2023-04-16T17:43:32.052Z,20.17
2023-04-16T17:46:04.178Z,26.93
2023-04-16T17:48:36.513Z,21.80
2023-04-16T17:51:12.166Z,22.67
2023-04-16T17:53:44.670Z,22.37
2023-04-16T17:56:16.597Z,24.07
2023-04-16T17:58:48.403Z,23.03
2023-04-16T18:01:20.482Z,22.27
2023-04-16T18:03:52.469Z,23.53
2023-04-16T18:06:24.613Z,27.47
2023-04-16T18:08:56.776Z,25.47
2023-04-16T18:11:30.634Z,22.47
2023-04-16T18:14:02.980Z,21.85
2023-04-16T18:16:35.360Z,27.20
2023-04-16T18:19:07.195Z,24.17
2023-04-16T18:21:39.666Z,29.00
2023-04-16T18:24:11.791Z,22.40
2023-04-16T18:26:46.861Z,27.00
2023-04-16T18:29:19.364Z,24.93
2023-04-16T18:31:51.498Z,23.23
2023-04-16T18:34:25.559Z,26.50
2023-04-16T18:36:57.496Z,22.87
2023-04-16T18:39:33.521Z,23.40
2023-04-16T18:44:36.934Z,24.57
2023-04-16T18:47:10.560Z,26.40
2023-04-16T18:49:42.285Z,23.80
2023-04-16T18:52:14.021Z,24.37
2023-04-16T18:54:45.982Z,27.43
2023-04-16T18:57:17.667Z,24.47
2023-04-16T18:59:49.442Z,30.20
2023-04-16T19:02:21.163Z,27.23
2023-04-16T19:04:53.003Z,29.73
2023-04-16T19:07:25.731Z,24.27
2023-04-16T19:09:58.683Z,28.00
2023-04-16T19:12:31.718Z,25.47
2023-04-16T19:15:04.794Z,27.17
2023-04-16T19:17:36.708Z,26.80
2023-04-16T19:20:11.249Z,27.23
2023-04-16T19:22:43.917Z,29.80
2023-04-16T19:25:15.746Z,25.73
2023-04-16T19:27:47.837Z,30.70
2023-04-16T19:30:20.690Z,32.47
2023-04-16T19:32:55.134Z,29.90
2023-04-16T19:37:59.767Z,29.83
2023-04-16T19:40:31.575Z,26.63
2023-04-16T19:43:03.667Z,33.63
2023-04-16T19:45:35.588Z,32.80
2023-04-16T19:48:07.390Z,31.07
2023-04-16T19:50:42.987Z,31.23
2023-04-16T19:53:17.194Z,34.37
2023-04-16T19:55:50.416Z,30.60
2023-04-16T19:58:22.073Z,31.63
2023-04-16T20:00:53.807Z,32.13
2023-04-16T20:03:25.698Z,30.37
2023-04-16T20:05:57.417Z,30.60
2023-04-16T20:08:29.582Z,32.10
2023-04-16T20:11:01.932Z,31.63
2023-04-16T20:13:33.663Z,30.57
2023-04-16T20:16:05.784Z,33.87
2023-04-16T20:18:41.478Z,33.57
2023-04-16T20:21:13.467Z,35.33
2023-04-16T20:23:45.170Z,33.57
2023-04-16T20:26:18.322Z,32.47
2023-04-16T20:28:50.003Z,31.90
2023-04-16T20:31:21.718Z,30.80
2023-04-16T20:33:54.256Z,34.57
2023-04-16T20:36:26.143Z,28.90
2023-04-16T20:38:59.412Z,36.20
2023-04-16T20:41:32.651Z,32.97
2023-04-16T20:44:05.323Z,32.13
2023-04-16T20:46:40.201Z,30.97
2023-04-16T20:51:45.579Z,33.47
2023-04-16T20:54:18.123Z,31.87
2023-04-16T20:56:50.358Z,31.17
2023-04-16T20:59:22.089Z,36.13
2023-04-16T21:01:55.014Z,37.30
2023-04-16T21:04:26.790Z,35.40
2023-04-16T21:06:58.579Z,31.37
2023-04-16T21:09:31.055Z,35.43
2023-04-16T21:12:02.876Z,31.77
2023-04-16T21:14:34.772Z,30.73
2023-04-16T21:17:06.468Z,30.73
2023-04-16T21:19:38.101Z,33.70
2023-04-16T21:22:09.982Z,32.27
2023-04-16T21:24:41.795Z,31.80
2023-04-16T21:27:15.051Z,34.77
2023-04-16T21:29:46.875Z,39.77
2023-04-16T21:32:20.645Z,40.87
2023-04-16T21:34:52.381Z,35.20
2023-04-16T21:37:24.104Z,37.47
2023-04-16T21:39:55.783Z,35.20
2023-04-16T21:42:27.603Z,41.87
2023-04-16T21:44:59.636Z,37.10
2023-04-16T21:47:31.493Z,34.03
2023-04-16T21:50:03.858Z,35.40
2023-04-16T21:52:40.752Z,36.43
2023-04-16T21:55:14.438Z,37.90
2023-04-16T21:57:46.952Z,35.53
2023-04-16T22:00:19.031Z,35.83
2023-04-16T22:02:56.169Z,40.07
2023-04-16T22:05:28.172Z,34.97
2023-04-16T22:08:02.570Z,36.20
2023-04-16T22:10:40.048Z,34.37
2023-04-16T22:13:13.791Z,32.53
2023-04-16T22:15:45.576Z,36.90
2023-04-16T22:18:18.157Z,36.70
2023-04-16T22:20:51.014Z,36.20
2023-04-16T22:23:24.959Z,36.23
2023-04-16T22:25:56.730Z,37.60
2023-04-16T22:28:29.217Z,37.60
2023-04-16T22:31:02.164Z,34.73
2023-04-16T22:33:34.620Z,35.23
2023-04-16T22:36:07.577Z,35.63
2023-04-16T22:38:39.745Z,36.27
2023-04-16T22:41:11.456Z,37.10
2023-04-16T22:43:43.237Z,35.00
2023-04-16T22:46:14.924Z,34.57
2023-04-16T22:48:47.156Z,35.77
2023-04-16T22:51:18.778Z,36.63
2023-04-16T22:53:51.920Z,37.80
2023-04-16T22:56:28.597Z,36.70
2023-04-16T22:59:01.157Z,36.73
2023-04-16T23:01:34.674Z,35.53
2023-04-16T23:04:06.369Z,34.50
2023-04-16T23:06:40.578Z,33.23
2023-04-16T23:09:12.500Z,38.37
2023-04-16T23:11:44.469Z,35.00
2023-04-16T23:14:16.977Z,34.00
2023-04-16T23:16:48.735Z,37.10
2023-04-16T23:19:20.515Z,36.13
2023-04-16T23:21:52.171Z,37.50
2023-04-16T23:24:23.931Z,38.00
2023-04-16T23:26:56.236Z,33.30
2023-04-16T23:29:27.971Z,37.47
2023-04-16T23:32:00.497Z,35.07
2023-04-16T23:34:32.220Z,35.07
2023-04-16T23:37:03.871Z,38.40
2023-04-16T23:39:35.902Z,36.80
2023-04-16T23:42:08.633Z,34.90
2023-04-16T23:44:40.543Z,39.70
2023-04-16T23:47:13.272Z,35.63
2023-04-16T23:49:45.077Z,34.83
2023-04-16T23:52:16.717Z,41.30
2023-04-16T23:54:48.600Z,40.27
2023-04-16T23:57:20.355Z,40.03
2023-04-16T23:59:53.582Z,39.20
